sensor_id;sensor_type;location;lat;lon;timestamp;pressure;altitude;pressure_sealevel;temperature;humidity
69173;BME280;56280;49.662;8.408;2022-12-16T13:19:40;100510.53;;;-2.33;88.66
69173;BME280;56280;49.662;8.408;2022-12-16T13:22:45;100516.28;;;-2.22;88.45
69173;BME280;56280;49.662;8.408;2022-12-16T13:25:50;100518.06;;;-2.24;88.73
69173;BME280;56280;49.662;8.408;2022-12-16T13:28:37;100526.03;;;-2.30;88.85
69173;BME280;56280;49.662;8.408;2022-12-16T13:31:22;100529.53;;;-2.31;88.53
69173;BME280;56280;49.662;8.408;2022-12-16T13:37:02;100537.88;;;-2.18;88.14
69173;BME280;56280;49.662;8.408;2022-12-16T13:40:19;100533.59;;;-2.21;87.99
69173;BME280;56280;49.662;8.408;2022-12-16T13:43:03;100553.53;;;-2.20;88.33
69173;BME280;56280;49.662;8.408;2022-12-16T13:48:47;100535.28;;;-2.18;88.16
69173;BME280;56280;49.662;8.408;2022-12-16T13:54:26;100548.28;;;-2.18;87.53
69173;BME280;56280;49.662;8.408;2022-12-16T13:57:12;100544.00;;;-2.21;87.62
69173;BME280;56280;49.662;8.408;2022-12-16T13:59:59;100539.03;;;-2.30;86.59
69173;BME280;56280;49.662;8.408;2022-12-16T14:02:47;100550.03;;;-1.88;86.57
69173;BME280;56280;49.662;8.408;2022-12-16T14:05:35;100567.91;;;-1.45;84.70
69173;BME280;56280;49.662;8.408;2022-12-16T14:08:22;100506.72;;;-2.22;85.05
69173;BME280;56280;49.662;8.408;2022-12-16T14:11:32;100548.72;;;-1.73;84.78
69173;BME280;56280;49.662;8.408;2022-12-16T14:14:34;100582.72;;;-1.77;85.25
69173;BME280;56280;49.662;8.408;2022-12-16T14:17:35;100552.88;;;-1.97;84.46
69173;BME280;56280;49.662;8.408;2022-12-16T14:20:36;100544.44;;;-1.74;83.21
69173;BME280;56280;49.662;8.408;2022-12-16T14:23:36;100581.47;;;-1.64;82.87
69173;BME280;56280;49.662;8.408;2022-12-16T14:26:23;100583.09;;;-1.90;83.76
69173;BME280;56280;49.662;8.408;2022-12-16T14:29:19;100577.50;;;-1.77;83.50
69173;BME280;56280;49.662;8.408;2022-12-16T14:32:18;100562.91;;;-2.14;84.30
69173;BME280;56280;49.662;8.408;2022-12-16T14:35:16;100605.59;;;-1.89;84.81
69173;BME280;56280;49.662;8.408;2022-12-16T14:38:24;100612.53;;;-1.88;85.33
69173;BME280;56280;49.662;8.408;2022-12-16T14:41:13;100620.31;;;-1.86;84.71
69173;BME280;56280;49.662;8.408;2022-12-16T14:43:58;100616.66;;;-2.12;85.57
69173;BME280;56280;49.662;8.408;2022-12-16T14:46:48;100620.94;;;-2.09;85.83
69173;BME280;56280;49.662;8.408;2022-12-16T14:49:32;100585.81;;;-2.27;85.49
69173;BME280;56280;49.662;8.408;2022-12-16T14:52:21;100632.72;;;-1.96;85.71
69173;BME280;56280;49.662;8.408;2022-12-16T14:55:11;100647.44;;;-1.95;85.19
69173;BME280;56280;49.662;8.408;2022-12-16T14:58:13;100618.53;;;-2.17;85.25
69173;BME280;56280;49.662;8.408;2022-12-16T15:01:03;100628.16;;;-1.88;84.88
69173;BME280;56280;49.662;8.408;2022-12-16T15:03:48;100633.19;;;-1.81;84.07
69173;BME280;56280;49.662;8.408;2022-12-16T15:06:42;100658.59;;;-1.90;84.28
69173;BME280;56280;49.662;8.408;2022-12-16T15:09:39;100646.69;;;-2.00;84.34
69173;BME280;56280;49.662;8.408;2022-12-16T15:12:27;100661.94;;;-1.85;83.76
69173;BME280;56280;49.662;8.408;2022-12-16T15:15:15;100663.28;;;-2.03;84.84
69173;BME280;56280;49.662;8.408;2022-12-16T15:18:02;100629.94;;;-2.23;84.34
69173;BME280;56280;49.662;8.408;2022-12-16T15:20:48;100668.13;;;-1.90;84.68
69173;BME280;56280;49.662;8.408;2022-12-16T15:23:33;100641.66;;;-2.06;84.14
69173;BME280;56280;49.662;8.408;2022-12-16T15:26:23;100676.81;;;-1.90;83.49
69173;BME280;56280;49.662;8.408;2022-12-16T15:29:30;100679.31;;;-2.20;84.68
69173;BME280;56280;49.662;8.408;2022-12-16T15:35:10;100697.69;;;-2.26;85.09
69173;BME280;56280;49.662;8.408;2022-12-16T15:41:17;100700.16;;;-2.21;84.33
69173;BME280;56280;49.662;8.408;2022-12-16T15:44:02;100701.19;;;-2.27;84.83
69173;BME280;56280;49.662;8.408;2022-12-16T15:46:47;100702.22;;;-2.34;85.04
69173;BME280;56280;49.662;8.408;2022-12-16T15:49:33;100719.94;;;-2.50;85.45
69173;BME280;56280;49.662;8.408;2022-12-16T15:52:37;100723.22;;;-2.79;86.76
69173;BME280;56280;49.662;8.408;2022-12-16T15:55:32;100731.81;;;-2.77;87.40
69173;BME280;56280;49.662;8.408;2022-12-16T15:58:35;100719.88;;;-2.86;87.45
69173;BME280;56280;49.662;8.408;2022-12-16T16:01:26;100725.97;;;-2.87;88.04
69173;BME280;56280;49.662;8.408;2022-12-16T16:07:02;100735.47;;;-2.84;87.82
69173;BME280;56280;49.662;8.408;2022-12-16T16:09:46;100725.31;;;-2.97;87.42
69173;BME280;56280;49.662;8.408;2022-12-16T16:12:30;100723.72;;;-3.02;88.14
69173;BME280;56280;49.662;8.408;2022-12-16T16:15:14;100738.78;;;-2.78;86.97
69173;BME280;56280;49.662;8.408;2022-12-16T16:18:00;100734.81;;;-2.55;85.83
69173;BME280;56280;49.662;8.408;2022-12-16T16:20:44;100739.88;;;-2.13;84.13
69173;BME280;56280;49.662;8.408;2022-12-16T16:23:28;100747.59;;;-2.08;83.38
69173;BME280;56280;49.662;8.408;2022-12-16T16:26:14;100760.38;;;-2.35;84.45
69173;BME280;56280;49.662;8.408;2022-12-16T16:28:58;100762.63;;;-2.59;85.66
69173;BME280;56280;49.662;8.408;2022-12-16T16:31:42;100752.56;;;-2.74;85.53
69173;BME280;56280;49.662;8.408;2022-12-16T16:34:27;100752.28;;;-3.01;86.44
69173;BME280;56280;49.662;8.408;2022-12-16T16:37:14;100776.56;;;-3.03;87.87
69173;BME280;56280;49.662;8.408;2022-12-16T16:39:59;100777.47;;;-3.06;88.25
69173;BME280;56280;49.662;8.408;2022-12-16T16:42:43;100757.31;;;-3.37;88.11
69173;BME280;56280;49.662;8.408;2022-12-16T16:45:27;100780.72;;;-3.38;88.86
69173;BME280;56280;49.662;8.408;2022-12-16T16:48:13;100780.81;;;-3.43;89.43
69173;BME280;56280;49.662;8.408;2022-12-16T16:50:58;100794.53;;;-3.35;89.25
69173;BME280;56280;49.662;8.408;2022-12-16T16:53:42;100787.91;;;-3.54;90.04
69173;BME280;56280;49.662;8.408;2022-12-16T16:56:28;100809.31;;;-3.40;90.65
69173;BME280;56280;49.662;8.408;2022-12-16T16:59:13;100775.44;;;-3.82;91.24
69173;BME280;56280;49.662;8.408;2022-12-16T17:01:57;100813.44;;;-3.78;92.21
69173;BME280;56280;49.662;8.408;2022-12-16T17:04:41;100794.38;;;-3.77;91.73
69173;BME280;56280;49.662;8.408;2022-12-16T17:07:25;100808.34;;;-3.84;92.38
69173;BME280;56280;49.662;8.408;2022-12-16T17:10:10;100821.16;;;-3.73;92.10
69173;BME280;56280;49.662;8.408;2022-12-16T17:12:54;100832.16;;;-3.57;91.33
69173;BME280;56280;49.662;8.408;2022-12-16T17:15:38;100813.13;;;-3.59;90.78
69173;BME280;56280;49.662;8.408;2022-12-16T17:18:22;100804.25;;;-3.46;90.13
69173;BME280;56280;49.662;8.408;2022-12-16T17:21:06;100803.69;;;-3.63;89.98
69173;BME280;56280;49.662;8.408;2022-12-16T17:23:57;100819.00;;;-3.48;89.53
69173;BME280;56280;49.662;8.408;2022-12-16T17:26:41;100830.47;;;-3.61;89.30
69173;BME280;56280;49.662;8.408;2022-12-16T17:29:26;100841.06;;;-3.74;90.80
69173;BME280;56280;49.662;8.408;2022-12-16T17:32:10;100844.59;;;-3.78;91.14
69173;BME280;56280;49.662;8.408;2022-12-16T17:34:55;100813.78;;;-3.99;91.02
69173;BME280;56280;49.662;8.408;2022-12-16T17:37:39;100849.69;;;-3.70;90.35
69173;BME280;56280;49.662;8.408;2022-12-16T17:40:24;100841.94;;;-3.73;89.79
69173;BME280;56280;49.662;8.408;2022-12-16T17:43:08;100856.53;;;-3.66;89.15
69173;BME280;56280;49.662;8.408;2022-12-16T17:45:59;100855.22;;;-3.93;90.17
69173;BME280;56280;49.662;8.408;2022-12-16T17:48:43;100855.28;;;-3.98;90.73
69173;BME280;56280;49.662;8.408;2022-12-16T17:51:27;100830.44;;;-4.13;90.25
69173;BME280;56280;49.662;8.408;2022-12-16T17:54:11;100865.50;;;-3.87;90.57
69173;BME280;56280;49.662;8.408;2022-12-16T17:56:55;100875.66;;;-3.70;90.07
69173;BME280;56280;49.662;8.408;2022-12-16T17:59:39;100867.47;;;-4.01;90.56
69173;BME280;56280;49.662;8.408;2022-12-16T18:02:23;100870.13;;;-4.08;91.46
69173;BME280;56280;49.662;8.408;2022-12-16T18:05:07;100830.06;;;-3.90;90.12
69173;BME280;56280;49.662;8.408;2022-12-16T18:07:51;100866.78;;;-3.57;87.96
69173;BME280;56280;49.662;8.408;2022-12-16T18:10:35;100852.84;;;-3.54;87.50
69173;BME280;56280;49.662;8.408;2022-12-16T18:13:19;100882.34;;;-3.57;87.13
69173;BME280;56280;49.662;8.408;2022-12-16T18:16:03;100870.34;;;-4.20;88.94
69173;BME280;56280;49.662;8.408;2022-12-16T18:18:50;100888.47;;;-4.17;91.43
69173;BME280;56280;49.662;8.408;2022-12-16T18:21:34;100874.97;;;-4.44;92.00
69173;BME280;56280;49.662;8.408;2022-12-16T18:24:17;100860.56;;;-4.66;92.81
69173;BME280;56280;49.662;8.408;2022-12-16T18:27:01;100868.09;;;-4.48;92.46
69173;BME280;56280;49.662;8.408;2022-12-16T18:29:45;100900.00;;;-4.41;92.63
69173;BME280;56280;49.662;8.408;2022-12-16T18:32:29;100913.84;;;-4.42;93.48
69173;BME280;56280;49.662;8.408;2022-12-16T18:35:13;100895.78;;;-4.50;93.22
69173;BME280;56280;49.662;8.408;2022-12-16T18:37:57;100878.59;;;-4.57;93.06
69173;BME280;56280;49.662;8.408;2022-12-16T18:40:41;100913.00;;;-4.43;92.63
69173;BME280;56280;49.662;8.408;2022-12-16T18:43:24;100911.38;;;-4.53;93.45
69173;BME280;56280;49.662;8.408;2022-12-16T18:46:08;100924.41;;;-4.59;93.94
69173;BME280;56280;49.662;8.408;2022-12-16T18:48:52;100921.78;;;-4.56;93.71
69173;BME280;56280;49.662;8.408;2022-12-16T18:51:36;100926.88;;;-4.47;93.00
69173;BME280;56280;49.662;8.408;2022-12-16T18:54:20;100946.84;;;-4.53;92.99
69173;BME280;56280;49.662;8.408;2022-12-16T18:57:04;100945.91;;;-4.51;93.56
69173;BME280;56280;49.662;8.408;2022-12-16T18:59:48;100949.19;;;-4.35;92.74
69173;BME280;56280;49.662;8.408;2022-12-16T19:02:32;100935.19;;;-4.20;91.64
69173;BME280;56280;49.662;8.408;2022-12-16T19:05:16;100926.59;;;-4.25;90.66
69173;BME280;56280;49.662;8.408;2022-12-16T19:08:00;100946.38;;;-4.16;90.02
69173;BME280;56280;49.662;8.408;2022-12-16T19:10:44;100964.81;;;-4.40;91.23
69173;BME280;56280;49.662;8.408;2022-12-16T19:13:27;100967.47;;;-4.43;91.64
69173;BME280;56280;49.662;8.408;2022-12-16T19:16:11;100938.31;;;-4.65;92.57
69173;BME280;56280;49.662;8.408;2022-12-16T19:18:55;100956.81;;;-4.21;91.65
69173;BME280;56280;49.662;8.408;2022-12-16T19:21:39;100950.31;;;-4.58;91.37
69173;BME280;56280;49.662;8.408;2022-12-16T19:24:23;100986.47;;;-4.41;91.40
69173;BME280;56280;49.662;8.408;2022-12-16T19:27:07;100983.69;;;-4.27;91.12
69173;BME280;56280;49.662;8.408;2022-12-16T19:29:51;100999.16;;;-4.17;89.63
69173;BME280;56280;49.662;8.408;2022-12-16T19:32:35;100987.34;;;-4.45;89.22
69173;BME280;56280;49.662;8.408;2022-12-16T19:35:18;100985.81;;;-4.63;91.16
69173;BME280;56280;49.662;8.408;2022-12-16T19:38:03;101005.41;;;-4.34;90.14
69173;BME280;56280;49.662;8.408;2022-12-16T19:40:57;100985.88;;;-4.70;89.73
69173;BME280;56280;49.662;8.408;2022-12-16T19:43:41;100992.16;;;-4.91;91.03
69173;BME280;56280;49.662;8.408;2022-12-16T19:46:25;100996.44;;;-4.89;90.66
69173;BME280;56280;49.662;8.408;2022-12-16T19:49:09;101014.53;;;-4.80;90.43
69173;BME280;56280;49.662;8.408;2022-12-16T19:51:53;100993.03;;;-4.91;90.97
69173;BME280;56280;49.662;8.408;2022-12-16T19:54:37;101000.81;;;-4.92;91.19
69173;BME280;56280;49.662;8.408;2022-12-16T19:57:21;101033.66;;;-4.98;91.46
69173;BME280;56280;49.662;8.408;2022-12-16T20:00:05;101023.88;;;-4.63;90.18
69173;BME280;56280;49.662;8.408;2022-12-16T20:02:49;101027.22;;;-4.53;89.08
69173;BME280;56280;49.662;8.408;2022-12-16T20:05:33;101036.03;;;-4.68;88.98
69173;BME280;56280;49.662;8.408;2022-12-16T20:08:17;101016.44;;;-5.02;89.78
69173;BME280;56280;49.662;8.408;2022-12-16T20:11:05;100994.22;;;-5.35;91.25
69173;BME280;56280;49.662;8.408;2022-12-16T20:13:53;101047.56;;;-5.08;91.67
69173;BME280;56280;49.662;8.408;2022-12-16T20:16:38;101038.84;;;-4.99;91.28
69173;BME280;56280;49.662;8.408;2022-12-16T20:19:22;101051.59;;;-4.71;89.67
69173;BME280;56280;49.662;8.408;2022-12-16T20:22:06;101035.91;;;-4.59;87.66
69173;BME280;56280;49.662;8.408;2022-12-16T20:24:49;101045.28;;;-4.44;85.83
69173;BME280;56280;49.662;8.408;2022-12-16T20:27:33;101052.09;;;-4.34;84.65
69173;BME280;56280;49.662;8.408;2022-12-16T20:30:17;101071.81;;;-4.19;83.53
69173;BME280;56280;49.662;8.408;2022-12-16T20:33:02;101010.91;;;-4.63;83.16
69173;BME280;56280;49.662;8.408;2022-12-16T20:36:00;101070.19;;;-4.26;83.48
69173;BME280;56280;49.662;8.408;2022-12-16T20:38:45;101054.00;;;-4.51;83.58
69173;BME280;56280;49.662;8.408;2022-12-16T20:41:29;101056.88;;;-4.85;84.44
69173;BME280;56280;49.662;8.408;2022-12-16T20:44:13;101053.25;;;-4.66;84.07
69173;BME280;56280;49.662;8.408;2022-12-16T20:46:57;101049.16;;;-4.91;84.47
69173;BME280;56280;49.662;8.408;2022-12-16T20:49:41;101078.59;;;-4.96;85.96
69173;BME280;56280;49.662;8.408;2022-12-16T20:52:25;101079.38;;;-4.86;85.75
69173;BME280;56280;49.662;8.408;2022-12-16T20:55:09;101069.19;;;-5.14;85.66
69173;BME280;56280;49.662;8.408;2022-12-16T20:57:53;101074.53;;;-5.35;87.29
69173;BME280;56280;49.662;8.408;2022-12-16T21:00:37;101092.00;;;-5.82;89.26
69173;BME280;56280;49.662;8.408;2022-12-16T21:03:38;101100.63;;;-5.78;91.07
69173;BME280;56280;49.662;8.408;2022-12-16T21:06:22;101068.81;;;-5.99;90.95
69173;BME280;56280;49.662;8.408;2022-12-16T21:09:06;101088.50;;;-5.75;91.49
69173;BME280;56280;49.662;8.408;2022-12-16T21:11:50;101106.56;;;-5.59;91.50
69173;BME280;56280;49.662;8.408;2022-12-16T21:14:34;101082.44;;;-5.60;91.30
69173;BME280;56280;49.662;8.408;2022-12-16T21:17:21;101109.03;;;-5.36;90.32
69173;BME280;56280;49.662;8.408;2022-12-16T21:20:05;101112.47;;;-5.28;89.53
69173;BME280;56280;49.662;8.408;2022-12-16T21:22:59;101117.69;;;-5.31;89.11
69173;BME280;56280;49.662;8.408;2022-12-16T21:25:43;101134.03;;;-5.26;88.91
69173;BME280;56280;49.662;8.408;2022-12-16T21:28:27;101098.81;;;-5.58;89.09
69173;BME280;56280;49.662;8.408;2022-12-16T21:31:11;101120.31;;;-5.42;89.28
69173;BME280;56280;49.662;8.408;2022-12-16T21:33:55;101135.91;;;-5.60;90.50
69173;BME280;56280;49.662;8.408;2022-12-16T21:36:39;101148.91;;;-5.68;90.96
69173;BME280;56280;49.662;8.408;2022-12-16T21:39:23;101138.63;;;-5.96;92.01
69173;BME280;56280;49.662;8.408;2022-12-16T21:42:06;101140.34;;;-5.86;92.29
69173;BME280;56280;49.662;8.408;2022-12-16T21:44:50;101129.91;;;-5.65;91.95
69173;BME280;56280;49.662;8.408;2022-12-16T21:47:34;101148.81;;;-5.48;90.95
69173;BME280;56280;49.662;8.408;2022-12-16T21:50:18;101154.81;;;-5.34;89.57
69173;BME280;56280;49.662;8.408;2022-12-16T21:53:02;101144.31;;;-5.10;87.84
69173;BME280;56280;49.662;8.408;2022-12-16T21:55:53;101164.22;;;-5.19;87.42
69173;BME280;56280;49.662;8.408;2022-12-16T21:58:37;101157.31;;;-5.18;86.86
69173;BME280;56280;49.662;8.408;2022-12-16T22:01:21;101165.16;;;-5.37;87.90
69173;BME280;56280;49.662;8.408;2022-12-16T22:04:05;101168.53;;;-5.13;86.84
69173;BME280;56280;49.662;8.408;2022-12-16T22:06:49;101165.13;;;-5.26;86.01
69173;BME280;56280;49.662;8.408;2022-12-16T22:09:33;101164.28;;;-5.31;86.17
69173;BME280;56280;49.662;8.408;2022-12-16T22:12:17;101196.13;;;-5.14;86.09
69173;BME280;56280;49.662;8.408;2022-12-16T22:15:00;101183.25;;;-5.27;85.73
69173;BME280;56280;49.662;8.408;2022-12-16T22:17:44;101203.03;;;-5.11;85.61
69173;BME280;56280;49.662;8.408;2022-12-16T22:20:28;101182.50;;;-5.62;86.59
69173;BME280;56280;49.662;8.408;2022-12-16T22:23:12;101203.19;;;-5.48;88.04
69173;BME280;56280;49.662;8.408;2022-12-16T22:25:57;101229.03;;;-5.28;88.05
69173;BME280;56280;49.662;8.408;2022-12-16T22:28:41;101227.28;;;-5.17;87.38
69173;BME280;56280;49.662;8.408;2022-12-16T22:31:25;101222.91;;;-5.08;86.40
69173;BME280;56280;49.662;8.408;2022-12-16T22:34:09;101219.44;;;-5.10;86.41
69173;BME280;56280;49.662;8.408;2022-12-16T22:36:53;101234.06;;;-4.92;85.87
69173;BME280;56280;49.662;8.408;2022-12-16T22:39:37;101216.81;;;-5.01;84.72
69173;BME280;56280;49.662;8.408;2022-12-16T22:42:21;101239.19;;;-4.89;84.46
69173;BME280;56280;49.662;8.408;2022-12-16T22:45:05;101251.25;;;-4.73;83.95
69173;BME280;56280;49.662;8.408;2022-12-16T22:48:00;101248.63;;;-4.70;83.90
69173;BME280;56280;49.662;8.408;2022-12-16T22:50:44;101253.75;;;-4.64;83.51
69173;BME280;56280;49.662;8.408;2022-12-16T22:53:27;101252.03;;;-4.63;82.61
69173;BME280;56280;49.662;8.408;2022-12-16T22:56:11;101258.22;;;-4.89;83.10
69173;BME280;56280;49.662;8.408;2022-12-16T22:58:55;101228.94;;;-5.05;83.45
69173;BME280;56280;49.662;8.408;2022-12-16T23:01:39;101254.81;;;-4.92;83.51
69173;BME280;56280;49.662;8.408;2022-12-16T23:04:23;101248.00;;;-5.17;83.34
69173;BME280;56280;49.662;8.408;2022-12-16T23:07:08;101257.47;;;-5.13;84.37
69173;BME280;56280;49.662;8.408;2022-12-16T23:09:52;101266.06;;;-5.07;83.29
69173;BME280;56280;49.662;8.408;2022-12-16T23:12:36;101272.19;;;-5.30;83.86
69173;BME280;56280;49.662;8.408;2022-12-16T23:15:19;101270.53;;;-5.46;83.97
69173;BME280;56280;49.662;8.408;2022-12-16T23:18:03;101267.09;;;-5.70;84.15
69173;BME280;56280;49.662;8.408;2022-12-16T23:21:13;101283.56;;;-6.11;86.56
69173;BME280;56280;49.662;8.408;2022-12-16T23:23:57;101267.19;;;-6.18;87.24
69173;BME280;56280;49.662;8.408;2022-12-16T23:26:42;101278.34;;;-5.74;86.24
69173;BME280;56280;49.662;8.408;2022-12-16T23:29:26;101271.47;;;-6.09;86.48
69173;BME280;56280;49.662;8.408;2022-12-16T23:32:10;101259.41;;;-6.35;87.16
69173;BME280;56280;49.662;8.408;2022-12-16T23:34:53;101283.53;;;-6.25;87.61
69173;BME280;56280;49.662;8.408;2022-12-16T23:37:37;101269.75;;;-6.35;87.43
69173;BME280;56280;49.662;8.408;2022-12-16T23:40:21;101280.09;;;-6.29;87.33
69173;BME280;56280;49.662;8.408;2022-12-16T23:43:05;101305.97;;;-6.26;87.08
69173;BME280;56280;49.662;8.408;2022-12-16T23:45:49;101290.34;;;-6.73;88.45
69173;BME280;56280;49.662;8.408;2022-12-16T23:48:33;101278.25;;;-6.82;89.09
69173;BME280;56280;49.662;8.408;2022-12-16T23:51:17;101306.78;;;-6.53;89.26
69173;BME280;56280;49.662;8.408;2022-12-16T23:54:00;101262.78;;;-6.67;88.54
69173;BME280;56280;49.662;8.408;2022-12-16T23:56:44;101275.69;;;-6.81;89.08
69173;BME280;56280;49.662;8.408;2022-12-16T23:59:28;101297.22;;;-6.80;89.39
